sensor_id;sensor_type;location;lat;lon;timestamp;pressure;altitude;pressure_sealevel;temperature;humidity
23170;BME280;11753;43.144;24.714;2022-09-28T00:00:24;98436.41;;;14.48;100.00
23170;BME280;11753;43.144;24.714;2022-09-28T00:01:26;98433.97;;;14.53;100.00
23170;BME280;11753;43.144;24.714;2022-09-28T00:02:27;98432.50;;;14.57;100.00
23170;BME280;11753;43.144;24.714;2022-09-28T00:03:28;98429.91;;;14.50;100.00
23170;BME280;11753;43.144;24.714;2022-09-28T00:04:29;98442.13;;;14.51;100.00
23170;BME280;11753;43.144;24.714;2022-09-28T00:05:30;98443.31;;;14.49;100.00
23170;BME280;11753;43.144;24.714;2022-09-28T00:06:32;98447.81;;;14.48;100.00
23170;BME280;11753;43.144;24.714;2022-09-28T00:07:33;98442.53;;;14.48;100.00
23170;BME280;11753;43.144;24.714;2022-09-28T00:08:34;98447.22;;;14.46;100.00
23170;BME280;11753;43.144;24.714;2022-09-28T00:09:35;98446.41;;;14.46;100.00
23170;BME280;11753;43.144;24.714;2022-09-28T00:10:36;98443.53;;;14.47;100.00
23170;BME280;11753;43.144;24.714;2022-09-28T00:11:36;98444.56;;;14.46;100.00
23170;BME280;11753;43.144;24.714;2022-09-28T00:12:38;98449.44;;;14.49;100.00
23170;BME280;11753;43.144;24.714;2022-09-28T00:13:40;98449.44;;;14.56;100.00
23170;BME280;11753;43.144;24.714;2022-09-28T00:14:40;98444.78;;;14.51;100.00
23170;BME280;11753;43.144;24.714;2022-09-28T00:15:43;98449.06;;;14.46;100.00
23170;BME280;11753;43.144;24.714;2022-09-28T00:16:44;98443.53;;;14.41;100.00
23170;BME280;11753;43.144;24.714;2022-09-28T00:17:45;98439.84;;;14.42;100.00
23170;BME280;11753;43.144;24.714;2022-09-28T00:18:45;98436.41;;;14.48;100.00
23170;BME280;11753;43.144;24.714;2022-09-28T00:19:46;98435.19;;;14.44;100.00
23170;BME280;11753;43.144;24.714;2022-09-28T00:20:47;98435.81;;;14.46;100.00
23170;BME280;11753;43.144;24.714;2022-09-28T00:21:48;98433.53;;;14.43;100.00
23170;BME280;11753;43.144;24.714;2022-09-28T00:22:49;98425.41;;;14.44;100.00
23170;BME280;11753;43.144;24.714;2022-09-28T00:23:54;98423.38;;;14.46;100.00
23170;BME280;11753;43.144;24.714;2022-09-28T00:25:16;98422.75;;;14.44;100.00
23170;BME280;11753;43.144;24.714;2022-09-28T00:26:17;98423.97;;;14.42;100.00
23170;BME280;11753;43.144;24.714;2022-09-28T00:27:18;98422.97;;;14.36;100.00
23170;BME280;11753;43.144;24.714;2022-09-28T00:28:19;98431.75;;;14.30;100.00
23170;BME280;11753;43.144;24.714;2022-09-28T00:29:29;98426.66;;;14.22;100.00
23170;BME280;11753;43.144;24.714;2022-09-28T00:30:30;98419.94;;;14.26;100.00
23170;BME280;11753;43.144;24.714;2022-09-28T00:31:32;98422.78;;;14.24;100.00
23170;BME280;11753;43.144;24.714;2022-09-28T00:32:34;98419.34;;;14.17;100.00
23170;BME280;11753;43.144;24.714;2022-09-28T00:33:35;98417.72;;;14.16;100.00
23170;BME280;11753;43.144;24.714;2022-09-28T00:34:37;98417.72;;;14.10;100.00
23170;BME280;11753;43.144;24.714;2022-09-28T00:35:39;98425.84;;;14.08;100.00
23170;BME280;11753;43.144;24.714;2022-09-28T00:36:43;98421.97;;;14.17;100.00
23170;BME280;11753;43.144;24.714;2022-09-28T00:37:47;98415.44;;;14.13;100.00
23170;BME280;11753;43.144;24.714;2022-09-28T00:38:49;98414.25;;;14.09;100.00
23170;BME280;11753;43.144;24.714;2022-09-28T00:39:51;98410.16;;;14.13;100.00
23170;BME280;11753;43.144;24.714;2022-09-28T00:40:52;98408.97;;;14.09;100.00
23170;BME280;11753;43.144;24.714;2022-09-28T00:41:53;98409.56;;;14.11;100.00
23170;BME280;11753;43.144;24.714;2022-09-28T00:42:54;98407.13;;;14.10;100.00
23170;BME280;11753;43.144;24.714;2022-09-28T00:45:35;98401.84;;;14.10;100.00
23170;BME280;11753;43.144;24.714;2022-09-28T00:46:36;98400.00;;;14.10;100.00
23170;BME280;11753;43.144;24.714;2022-09-28T00:47:44;98400.00;;;14.10;100.00
23170;BME280;11753;43.144;24.714;2022-09-28T00:48:56;98397.16;;;14.05;100.00
23170;BME280;11753;43.144;24.714;2022-09-28T00:51:13;98408.16;;;14.09;100.00
23170;BME280;11753;43.144;24.714;2022-09-28T00:52:21;98401.84;;;14.10;100.00
23170;BME280;11753;43.144;24.714;2022-09-28T00:53:28;98394.72;;;14.10;100.00
23170;BME280;11753;43.144;24.714;2022-09-28T00:54:30;98398.16;;;14.04;100.00
23170;BME280;11753;43.144;24.714;2022-09-28T00:56:45;98391.25;;;14.03;100.00
23170;BME280;11753;43.144;24.714;2022-09-28T00:57:51;98405.50;;;14.02;100.00
23170;BME280;11753;43.144;24.714;2022-09-28T00:58:55;98395.53;;;14.04;100.00
23170;BME280;11753;43.144;24.714;2022-09-28T00:59:58;98398.59;;;14.01;100.00
23170;BME280;11753;43.144;24.714;2022-09-28T01:01:01;98392.88;;;14.04;100.00
23170;BME280;11753;43.144;24.714;2022-09-28T01:02:03;98392.88;;;14.04;100.00
23170;BME280;11753;43.144;24.714;2022-09-28T01:03:04;98400.22;;;14.02;100.00
23170;BME280;11753;43.144;24.714;2022-09-28T01:04:05;98406.72;;;13.99;100.00
23170;BME280;11753;43.144;24.714;2022-09-28T01:05:07;98398.97;;;13.91;100.00
23170;BME280;11753;43.144;24.714;2022-09-28T01:06:14;98404.06;;;13.93;100.00
23170;BME280;11753;43.144;24.714;2022-09-28T01:07:17;98400.81;;;13.91;100.00
23170;BME280;11753;43.144;24.714;2022-09-28T01:08:20;98398.97;;;13.85;100.00
23170;BME280;11753;43.144;24.714;2022-09-28T01:09:24;98407.13;;;13.90;100.00
23170;BME280;11753;43.144;24.714;2022-09-28T01:10:27;98403.06;;;13.87;100.00
23170;BME280;11753;43.144;24.714;2022-09-28T01:11:32;98401.84;;;13.90;100.00
23170;BME280;11753;43.144;24.714;2022-09-28T01:12:34;98400.22;;;13.89;100.00
23170;BME280;11753;43.144;24.714;2022-09-28T01:13:38;98398.38;;;13.83;100.00
23170;BME280;11753;43.144;24.714;2022-09-28T01:14:40;98394.91;;;13.82;100.00
23170;BME280;11753;43.144;24.714;2022-09-28T01:15:49;98396.97;;;13.87;100.00
23170;BME280;11753;43.144;24.714;2022-09-28T01:17:29;98400.59;;;13.86;100.00
23170;BME280;11753;43.144;24.714;2022-09-28T01:21:58;98401.44;;;13.73;100.00
23170;BME280;11753;43.144;24.714;2022-09-28T01:27:02;98397.75;;;13.67;100.00
23170;BME280;11753;43.144;24.714;2022-09-28T01:28:11;98388.41;;;13.65;100.00
23170;BME280;11753;43.144;24.714;2022-09-28T01:29:34;98402.63;;;13.70;100.00
23170;BME280;11753;43.144;24.714;2022-09-28T01:31:07;98403.06;;;13.67;100.00
23170;BME280;11753;43.144;24.714;2022-09-28T01:33:22;98395.72;;;13.69;100.00
23170;BME280;11753;43.144;24.714;2022-09-28T01:34:38;98395.72;;;13.69;100.00
23170;BME280;11753;43.144;24.714;2022-09-28T01:35:58;98404.25;;;13.71;100.00
23170;BME280;11753;43.144;24.714;2022-09-28T01:37:03;98403.44;;;13.77;100.00
23170;BME280;11753;43.144;24.714;2022-09-28T01:39:20;98400.78;;;13.64;100.00
23170;BME280;11753;43.144;24.714;2022-09-28T01:40:25;98397.34;;;13.57;100.00
23170;BME280;11753;43.144;24.714;2022-09-28T01:41:28;98399.97;;;13.57;100.00
23170;BME280;11753;43.144;24.714;2022-09-28T01:42:33;98409.16;;;13.61;100.00
23170;BME280;11753;43.144;24.714;2022-09-28T01:43:38;98399.78;;;13.52;100.00
23170;BME280;11753;43.144;24.714;2022-09-28T01:44:46;98402.00;;;13.55;100.00
23170;BME280;11753;43.144;24.714;2022-09-28T01:45:59;98404.66;;;13.55;100.00
23170;BME280;11753;43.144;24.714;2022-09-28T01:47:02;98404.66;;;13.55;100.00
23170;BME280;11753;43.144;24.714;2022-09-28T01:48:05;98405.06;;;13.52;100.00
23170;BME280;11753;43.144;24.714;2022-09-28T01:49:14;98413.59;;;13.54;100.00
23170;BME280;11753;43.144;24.714;2022-09-28T01:50:21;98414.84;;;13.58;100.00
23170;BME280;11753;43.144;24.714;2022-09-28T01:51:34;98404.28;;;13.58;100.00
23170;BME280;11753;43.144;24.714;2022-09-28T01:53:12;98416.84;;;13.56;100.00
23170;BME280;11753;43.144;24.714;2022-09-28T01:54:27;98422.97;;;13.57;100.00
23170;BME280;11753;43.144;24.714;2022-09-28T01:55:34;98416.69;;;13.58;100.00
23170;BME280;11753;43.144;24.714;2022-09-28T01:56:46;98420.31;;;13.57;100.00
23170;BME280;11753;43.144;24.714;2022-09-28T01:57:55;98420.53;;;13.55;100.00
23170;BME280;11753;43.144;24.714;2022-09-28T01:59:02;98425.81;;;13.55;100.00
23170;BME280;11753;43.144;24.714;2022-09-28T02:00:10;98423.56;;;13.52;100.00
23170;BME280;11753;43.144;24.714;2022-09-28T02:01:23;98429.88;;;13.51;100.00
23170;BME280;11753;43.144;24.714;2022-09-28T02:02:31;98425.81;;;13.55;100.00
23170;BME280;11753;43.144;24.714;2022-09-28T02:03:39;98431.69;;;13.57;100.00
23170;BME280;11753;43.144;24.714;2022-09-28T02:04:54;98437.19;;;13.49;100.00
23170;BME280;11753;43.144;24.714;2022-09-28T02:06:01;98432.91;;;13.48;100.00
23170;BME280;11753;43.144;24.714;2022-09-28T02:07:47;98433.94;;;13.54;100.00
23170;BME280;11753;43.144;24.714;2022-09-28T02:08:54;98428.44;;;13.55;100.00
23170;BME280;11753;43.144;24.714;2022-09-28T02:10:04;98435.56;;;13.55;100.00
23170;BME280;11753;43.144;24.714;2022-09-28T02:11:14;98428.44;;;13.55;100.00
23170;BME280;11753;43.144;24.714;2022-09-28T02:12:42;98434.38;;;13.51;100.00
23170;BME280;11753;43.144;24.714;2022-09-28T02:13:54;98435.97;;;13.45;100.00
23170;BME280;11753;43.144;24.714;2022-09-28T02:16:40;98435.56;;;13.48;100.00
23170;BME280;11753;43.144;24.714;2022-09-28T02:17:42;98425.59;;;13.43;100.00
23170;BME280;11753;43.144;24.714;2022-09-28T02:18:44;98437.38;;;13.41;100.00
23170;BME280;11753;43.144;24.714;2022-09-28T02:19:45;98427.22;;;13.38;100.00
23170;BME280;11753;43.144;24.714;2022-09-28T02:21:08;98430.06;;;13.36;100.00
23170;BME280;11753;43.144;24.714;2022-09-28T02:22:35;98438.59;;;13.38;100.00
23170;BME280;11753;43.144;24.714;2022-09-28T02:23:48;98442.66;;;13.41;100.00
23170;BME280;11753;43.144;24.714;2022-09-28T02:24:55;98440.44;;;13.38;100.00
23170;BME280;11753;43.144;24.714;2022-09-28T02:26:05;98439.19;;;13.40;100.00
23170;BME280;11753;43.144;24.714;2022-09-28T02:28:33;98442.84;;;13.33;100.00
23170;BME280;11753;43.144;24.714;2022-09-28T02:29:34;98437.16;;;13.36;100.00
23170;BME280;11753;43.144;24.714;2022-09-28T02:30:37;98436.16;;;13.37;100.00
23170;BME280;11753;43.144;24.714;2022-09-28T02:31:38;98429.44;;;13.41;100.00
23170;BME280;11753;43.144;24.714;2022-09-28T02:32:41;98435.94;;;13.38;100.00
23170;BME280;11753;43.144;24.714;2022-09-28T02:33:47;98434.31;;;13.31;100.00
23170;BME280;11753;43.144;24.714;2022-09-28T02:34:50;98433.91;;;13.34;100.00
23170;BME280;11753;43.144;24.714;2022-09-28T02:35:51;98433.91;;;13.34;100.00
23170;BME280;11753;43.144;24.714;2022-09-28T02:36:52;98443.88;;;13.32;100.00
23170;BME280;11753;43.144;24.714;2022-09-28T02:37:54;98434.91;;;13.33;100.00
23170;BME280;11753;43.144;24.714;2022-09-28T02:38:56;98442.44;;;13.36;100.00
23170;BME280;11753;43.144;24.714;2022-09-28T02:39:58;98442.44;;;13.36;100.00
23170;BME280;11753;43.144;24.714;2022-09-28T02:42:33;98441.22;;;13.32;100.00
23170;BME280;11753;43.144;24.714;2022-09-28T03:00:56;98436.59;;;12.99;100.00
23170;BME280;11753;43.144;24.714;2022-09-28T03:03:17;98441.53;;;13.09;100.00
23170;BME280;11753;43.144;24.714;2022-09-28T03:05:58;98443.72;;;13.05;100.00
23170;BME280;11753;43.144;24.714;2022-09-28T03:07:09;98449.41;;;13.02;100.00
23170;BME280;11753;43.144;24.714;2022-09-28T03:09:27;98450.22;;;13.03;100.00
23170;BME280;11753;43.144;24.714;2022-09-28T03:10:45;98459.75;;;12.97;100.00
23170;BME280;11753;43.144;24.714;2022-09-28T03:11:56;98464.03;;;12.98;100.00
23170;BME280;11753;43.144;24.714;2022-09-28T03:12:59;98464.44;;;12.95;100.00
23170;BME280;11753;43.144;24.714;2022-09-28T03:14:02;98463.41;;;12.96;100.00
23170;BME280;11753;43.144;24.714;2022-09-28T03:16:13;98472.56;;;12.93;100.00
23170;BME280;11753;43.144;24.714;2022-09-28T03:17:14;98466.66;;;12.98;100.00
23170;BME280;11753;43.144;24.714;2022-09-28T03:18:15;98462.16;;;12.92;100.00
23170;BME280;11753;43.144;24.714;2022-09-28T03:19:20;98467.66;;;12.90;100.00
23170;BME280;11753;43.144;24.714;2022-09-28T03:20:24;98460.13;;;12.87;100.00
23170;BME280;11753;43.144;24.714;2022-09-28T03:21:26;98466.22;;;12.88;100.00
23170;BME280;11753;43.144;24.714;2022-09-28T03:22:27;98459.31;;;12.87;100.00
23170;BME280;11753;43.144;24.714;2022-09-28T03:23:28;98457.44;;;12.81;100.00
23170;BME280;11753;43.144;24.714;2022-09-28T03:24:29;98467.41;;;12.79;100.00
23170;BME280;11753;43.144;24.714;2022-09-28T03:25:30;98470.03;;;12.79;100.00
23170;BME280;11753;43.144;24.714;2022-09-28T03:26:32;98464.94;;;12.77;100.00
23170;BME280;11753;43.144;24.714;2022-09-28T03:27:33;98474.69;;;12.77;100.00
23170;BME280;11753;43.144;24.714;2022-09-28T03:28:33;98466.16;;;12.75;100.00
23170;BME280;11753;43.144;24.714;2022-09-28T03:29:36;98470.03;;;12.79;100.00
23170;BME280;11753;43.144;24.714;2022-09-28T03:30:39;98463.50;;;12.75;100.00
23170;BME280;11753;43.144;24.714;2022-09-28T03:31:43;98471.81;;;12.72;100.00
23170;BME280;11753;43.144;24.714;2022-09-28T03:32:43;98468.16;;;12.73;100.00
23170;BME280;11753;43.144;24.714;2022-09-28T03:33:44;98472.28;;;12.82;100.00
23170;BME280;11753;43.144;24.714;2022-09-28T03:34:44;98468.63;;;12.83;100.00
23170;BME280;11753;43.144;24.714;2022-09-28T03:35:46;98474.34;;;12.86;100.00
23170;BME280;11753;43.144;24.714;2022-09-28T03:36:47;98476.16;;;12.86;100.00
23170;BME280;11753;43.144;24.714;2022-09-28T03:37:47;98464.34;;;12.82;100.00
23170;BME280;11753;43.144;24.714;2022-09-28T03:38:51;98471.06;;;12.84;100.00
23170;BME280;11753;43.144;24.714;2022-09-28T03:39:52;98463.78;;;12.86;100.00
23170;BME280;11753;43.144;24.714;2022-09-28T03:40:57;98464.34;;;12.82;100.00
23170;BME280;11753;43.144;24.714;2022-09-28T03:42:01;98465.56;;;12.79;100.00
23170;BME280;11753;43.144;24.714;2022-09-28T03:43:02;98462.50;;;12.76;100.00
23170;BME280;11753;43.144;24.714;2022-09-28T03:44:02;98472.03;;;12.77;100.00
23170;BME280;11753;43.144;24.714;2022-09-28T03:45:03;98471.22;;;12.76;100.00
23170;BME280;11753;43.144;24.714;2022-09-28T03:46:04;98459.59;;;12.71;100.00
23170;BME280;11753;43.144;24.714;2022-09-28T03:47:08;98460.25;;;12.73;100.00
23170;BME280;11753;43.144;24.714;2022-09-28T03:48:09;98467.16;;;12.74;100.00
23170;BME280;11753;43.144;24.714;2022-09-28T03:49:09;98460.88;;;12.75;100.00
23170;BME280;11753;43.144;24.714;2022-09-28T03:50:10;98460.47;;;12.78;100.00
23170;BME280;11753;43.144;24.714;2022-09-28T03:51:11;98465.97;;;12.83;100.00
23170;BME280;11753;43.144;24.714;2022-09-28T03:52:13;98471.84;;;12.78;100.00
23170;BME280;11753;43.144;24.714;2022-09-28T03:53:14;98461.19;;;12.58;100.00
23170;BME280;11753;43.144;24.714;2022-09-28T03:54:15;98460.38;;;12.58;100.00
23170;BME280;11753;43.144;24.714;2022-09-28T03:55:16;98469.72;;;12.60;100.00
23170;BME280;11753;43.144;24.714;2022-09-28T03:56:17;98471.34;;;12.61;100.00
23170;BME280;11753;43.144;24.714;2022-09-28T03:57:18;98472.56;;;12.59;100.00
23170;BME280;11753;43.144;24.714;2022-09-28T03:58:20;98475.41;;;12.57;100.00
23170;BME280;11753;43.144;24.714;2022-09-28T03:59:21;98476.56;;;12.55;100.00
23170;BME280;11753;43.144;24.714;2022-09-28T04:00:22;98477.59;;;12.54;100.00
23170;BME280;11753;43.144;24.714;2022-09-28T04:01:23;98476.22;;;12.58;100.00
23170;BME280;11753;43.144;24.714;2022-09-28T04:02:24;98479.84;;;12.57;100.00
23170;BME280;11753;43.144;24.714;2022-09-28T04:03:25;98476.78;;;12.53;100.00
23170;BME280;11753;43.144;24.714;2022-09-28T04:04:25;98485.97;;;12.57;100.00
23170;BME280;11753;43.144;24.714;2022-09-28T04:05:26;98494.84;;;12.56;100.00
23170;BME280;11753;43.144;24.714;2022-09-28T04:06:27;98491.34;;;12.49;100.00
23170;BME280;11753;43.144;24.714;2022-09-28T04:07:28;98498.91;;;12.52;100.00
23170;BME280;11753;43.144;24.714;2022-09-28T04:08:30;98498.84;;;12.46;100.00
23170;BME280;11753;43.144;24.714;2022-09-28T04:09:31;98496.41;;;12.44;100.00
23170;BME280;11753;43.144;24.714;2022-09-28T04:10:31;98504.56;;;12.49;100.00
23170;BME280;11753;43.144;24.714;2022-09-28T04:11:33;98500.28;;;12.48;100.00
23170;BME280;11753;43.144;24.714;2022-09-28T04:12:34;98502.56;;;12.51;100.00
23170;BME280;11753;43.144;24.714;2022-09-28T04:13:34;98500.94;;;12.50;100.00
23170;BME280;11753;43.144;24.714;2022-09-28T04:14:36;98500.72;;;12.52;100.00
23170;BME280;11753;43.144;24.714;2022-09-28T04:15:37;98498.91;;;12.52;100.00
23170;BME280;11753;43.144;24.714;2022-09-28T04:16:37;98496.06;;;12.54;100.00
23170;BME280;11753;43.144;24.714;2022-09-28T04:17:38;98505.03;;;12.59;100.00
23170;BME280;11753;43.144;24.714;2022-09-28T04:18:38;98502.41;;;12.59;100.00
23170;BME280;11753;43.144;24.714;2022-09-28T04:19:39;98506.69;;;12.60;100.00
23170;BME280;11753;43.144;24.714;2022-09-28T04:20:40;98503.41;;;12.58;100.00
23170;BME280;11753;43.144;24.714;2022-09-28T04:21:44;98504.22;;;12.59;100.00
23170;BME280;11753;43.144;24.714;2022-09-28T04:22:46;98502.59;;;12.58;100.00
23170;BME280;11753;43.144;24.714;2022-09-28T04:23:47;98508.50;;;12.60;100.00
23170;BME280;11753;43.144;24.714;2022-09-28T04:24:48;98503.84;;;12.62;100.00
23170;BME280;11753;43.144;24.714;2022-09-28T04:25:52;98501.78;;;12.57;100.00
23170;BME280;11753;43.144;24.714;2022-09-28T04:26:53;98504.81;;;12.54;100.00
23170;BME280;11753;43.144;24.714;2022-09-28T04:28:14;98503.78;;;12.55;100.00
23170;BME280;11753;43.144;24.714;2022-09-28T04:29:33;98507.06;;;12.57;100.00
23170;BME280;11753;43.144;24.714;2022-09-28T04:30:33;98498.91;;;12.52;100.00
23170;BME280;11753;43.144;24.714;2022-09-28T04:31:48;98501.56;;;12.52;100.00
23170;BME280;11753;43.144;24.714;2022-09-28T04:32:50;98512.47;;;12.49;100.00
23170;BME280;11753;43.144;24.714;2022-09-28T04:33:50;98501.91;;;12.49;100.00
23170;BME280;11753;43.144;24.714;2022-09-28T04:34:51;98508.84;;;12.50;100.00
23170;BME280;11753;43.144;24.714;2022-09-28T04:35:52;98507.03;;;12.51;100.00
23170;BME280;11753;43.144;24.714;2022-09-28T04:36:53;98515.97;;;12.56;100.00
23170;BME280;11753;43.144;24.714;2022-09-28T04:37:53;98505.41;;;12.56;100.00
23170;BME280;11753;43.144;24.714;2022-09-28T04:38:54;98511.94;;;12.60;100.00
23170;BME280;11753;43.144;24.714;2022-09-28T04:39:55;98511.34;;;12.58;100.00
23170;BME280;11753;43.144;24.714;2022-09-28T04:40:56;98510.94;;;12.61;100.00
23170;BME280;11753;43.144;24.714;2022-09-28T04:41:56;98517.84;;;12.62;100.00
23170;BME280;11753;43.144;24.714;2022-09-28T04:42:57;98504.50;;;12.71;100.00
23170;BME280;11753;43.144;24.714;2022-09-28T04:43:57;98505.13;;;12.73;100.00
23170;BME280;11753;43.144;24.714;2022-09-28T04:44:58;98506.75;;;12.74;100.00
23170;BME280;11753;43.144;24.714;2022-09-28T04:46:01;98507.63;;;12.81;100.00
23170;BME280;11753;43.144;24.714;2022-09-28T04:47:02;98503.16;;;12.81;100.00
23170;BME280;11753;43.144;24.714;2022-09-28T04:48:05;98514.78;;;12.87;100.00
23170;BME280;11753;43.144;24.714;2022-09-28T04:49:06;98509.69;;;12.92;100.00
23170;BME280;11753;43.144;24.714;2022-09-28T04:50:09;98514.16;;;12.91;100.00
23170;BME280;11753;43.144;24.714;2022-09-28T04:51:09;98517.06;;;12.97;100.00
23170;BME280;11753;43.144;24.714;2022-09-28T04:52:10;98507.91;;;12.99;100.00
23170;BME280;11753;43.144;24.714;2022-09-28T04:53:11;98511.41;;;13.06;100.00
23170;BME280;11753;43.144;24.714;2022-09-28T04:54:12;98509.78;;;13.05;100.00
23170;BME280;11753;43.144;24.714;2022-09-28T04:55:14;98510.22;;;13.09;100.00
23170;BME280;11753;43.144;24.714;2022-09-28T04:56:16;98519.97;;;13.08;100.00
23170;BME280;11753;43.144;24.714;2022-09-28T04:57:17;98514.69;;;13.08;100.00
23170;BME280;11753;43.144;24.714;2022-09-28T04:58:18;98520.81;;;13.15;100.00
23170;BME280;11753;43.144;24.714;2022-09-28T04:59:19;98517.97;;;13.17;100.00
23170;BME280;11753;43.144;24.714;2022-09-28T05:00:20;98513.69;;;13.16;100.00
23170;BME280;11753;43.144;24.714;2022-09-28T05:01:20;98521.63;;;13.16;100.00
23170;BME280;11753;43.144;24.714;2022-09-28T05:02:23;98526.09;;;13.15;100.00
23170;BME280;11753;43.144;24.714;2022-09-28T05:03:24;98526.09;;;13.15;100.00
23170;BME280;11753;43.144;24.714;2022-09-28T05:04:25;98516.13;;;13.17;100.00
23170;BME280;11753;43.144;24.714;2022-09-28T05:05:27;98520.03;;;13.21;100.00
23170;BME280;11753;43.144;24.714;2022-09-28T05:06:28;98516.41;;;13.23;100.00
23170;BME280;11753;43.144;24.714;2022-09-28T05:07:30;98516.41;;;13.23;100.00
23170;BME280;11753;43.144;24.714;2022-09-28T05:08:31;98518.88;;;13.31;100.00
23170;BME280;11753;43.144;24.714;2022-09-28T05:09:33;98514.81;;;13.35;100.00
23170;BME280;11753;43.144;24.714;2022-09-28T05:10:34;98506.50;;;13.38;100.00
23170;BME280;11753;43.144;24.714;2022-09-28T05:11:35;98517.69;;;13.40;100.00
23170;BME280;11753;43.144;24.714;2022-09-28T05:12:36;98515.28;;;13.45;100.00
23170;BME280;11753;43.144;24.714;2022-09-28T05:13:42;98518.28;;;13.42;100.00
23170;BME280;11753;43.144;24.714;2022-09-28T05:14:44;98512.00;;;13.43;100.00
23170;BME280;11753;43.144;24.714;2022-09-28T05:15:45;98512.00;;;13.43;100.00
23170;BME280;11753;43.144;24.714;2022-09-28T05:16:47;98513.66;;;13.44;100.00
23170;BME280;11753;43.144;24.714;2022-09-28T05:17:48;98505.88;;;13.42;100.00
23170;BME280;11753;43.144;24.714;2022-09-28T05:18:53;98515.88;;;13.47;100.00
23170;BME280;11753;43.144;24.714;2022-09-28T05:19:54;98511.19;;;13.49;100.00
23170;BME280;11753;43.144;24.714;2022-09-28T05:20:55;98511.59;;;13.46;100.00
23170;BME280;11753;43.144;24.714;2022-09-28T05:21:56;98514.84;;;13.41;100.00
23170;BME280;11753;43.144;24.714;2022-09-28T05:23:03;98506.31;;;13.46;100.00
23170;BME280;11753;43.144;24.714;2022-09-28T05:24:04;98514.06;;;13.54;100.00
23170;BME280;11753;43.144;24.714;2022-09-28T05:25:07;98516.94;;;13.59;100.00
23170;BME280;11753;43.144;24.714;2022-09-28T05:26:08;98521.00;;;13.62;100.00
23170;BME280;11753;43.144;24.714;2022-09-28T05:27:09;98518.78;;;13.65;100.00
23170;BME280;11753;43.144;24.714;2022-09-28T05:28:10;98521.84;;;13.69;100.00
23170;BME280;11753;43.144;24.714;2022-09-28T05:29:11;98518.19;;;13.76;100.00
23170;BME280;11753;43.144;24.714;2022-09-28T05:30:12;98522.28;;;13.79;100.00
23170;BME280;11753;43.144;24.714;2022-09-28T05:31:14;98520.66;;;13.85;100.00
23170;BME280;11753;43.144;24.714;2022-09-28T05:32:14;98529.59;;;13.84;100.00
23170;BME280;11753;43.144;24.714;2022-09-28T05:33:16;98530.84;;;13.88;100.00
23170;BME280;11753;43.144;24.714;2022-09-28T05:34:17;98525.75;;;13.93;100.00
23170;BME280;11753;43.144;24.714;2022-09-28T05:35:19;98525.13;;;13.91;100.00
23170;BME280;11753;43.144;24.714;2022-09-28T05:36:20;98527.81;;;13.97;100.00
23170;BME280;11753;43.144;24.714;2022-09-28T05:37:21;98518.03;;;13.98;100.00
23170;BME280;11753;43.144;24.714;2022-09-28T05:38:22;98520.28;;;14.01;100.00
23170;BME280;11753;43.144;24.714;2022-09-28T05:39:26;98525.59;;;14.01;100.00
23170;BME280;11753;43.144;24.714;2022-09-28T05:40:27;98509.72;;;14.08;100.00
23170;BME280;11753;43.144;24.714;2022-09-28T05:41:28;98521.13;;;14.08;100.00
23170;BME280;11753;43.144;24.714;2022-09-28T05:42:29;98522.31;;;14.12;100.00
23170;BME280;11753;43.144;24.714;2022-09-28T05:43:31;98523.13;;;14.19;100.00
23170;BME280;11753;43.144;24.714;2022-09-28T05:44:32;98514.38;;;14.19;100.00
23170;BME280;11753;43.144;24.714;2022-09-28T05:45:33;98521.91;;;14.28;100.00
23170;BME280;11753;43.144;24.714;2022-09-28T05:46:34;98517.44;;;14.36;100.00
23170;BME280;11753;43.144;24.714;2022-09-28T05:47:42;98516.44;;;14.37;100.00
23170;BME280;11753;43.144;24.714;2022-09-28T05:48:45;98516.22;;;14.31;100.00
23170;BME280;11753;43.144;24.714;2022-09-28T05:49:46;98512.56;;;14.32;100.00
23170;BME280;11753;43.144;24.714;2022-09-28T05:50:50;98516.63;;;14.42;100.00
23170;BME280;11753;43.144;24.714;2022-09-28T05:51:51;98516.88;;;14.47;100.00
23170;BME280;11753;43.144;24.714;2022-09-28T05:53:06;98510.16;;;14.51;100.00
23170;BME280;11753;43.144;24.714;2022-09-28T05:54:07;98519.50;;;14.53;100.00
23170;BME280;11753;43.144;24.714;2022-09-28T05:55:09;98512.59;;;14.59;100.00
23170;BME280;11753;43.144;24.714;2022-09-28T05:56:11;98514.41;;;14.65;100.00
23170;BME280;11753;43.144;24.714;2022-09-28T05:57:12;98513.78;;;14.70;99.78
23170;BME280;11753;43.144;24.714;2022-09-28T05:58:13;98515.81;;;14.74;99.47
23170;BME280;11753;43.144;24.714;2022-09-28T05:59:14;98517.00;;;14.85;98.23
23170;BME280;11753;43.144;24.714;2022-09-28T06:00:16;98511.91;;;14.97;96.94
23170;BME280;11753;43.144;24.714;2022-09-28T06:01:17;98521.47;;;14.98;96.51
23170;BME280;11753;43.144;24.714;2022-09-28T06:02:18;98504.75;;;14.97;97.50
23170;BME280;11753;43.144;24.714;2022-09-28T06:03:18;98514.13;;;15.00;97.65
23170;BME280;11753;43.144;24.714;2022-09-28T06:04:19;98516.75;;;15.06;97.56
23170;BME280;11753;43.144;24.714;2022-09-28T06:05:20;98519.00;;;15.09;97.54
23170;BME280;11753;43.144;24.714;2022-09-28T06:06:21;98517.34;;;15.15;97.88
23170;BME280;11753;43.144;24.714;2022-09-28T06:07:21;98513.84;;;15.21;97.70
23170;BME280;11753;43.144;24.714;2022-09-28T06:08:23;98514.00;;;15.33;96.54
23170;BME280;11753;43.144;24.714;2022-09-28T06:09:23;98516.03;;;15.37;95.90
23170;BME280;11753;43.144;24.714;2022-09-28T06:10:25;98510.13;;;15.35;96.19